createdAt,value
2018-08-06T11:30:59.890Z,31.90
2018-08-06T11:33:28.213Z,32.00
2018-08-06T11:36:03.532Z,32.00
2018-08-06T11:40:59.973Z,32.10
2018-08-06T11:43:33.287Z,32.20
2018-08-06T11:46:01.714Z,32.30
2018-08-06T11:48:29.933Z,32.40
2018-08-06T11:50:58.521Z,32.50
2018-08-06T11:55:54.775Z,32.70
2018-08-06T11:58:22.989Z,32.70
2018-08-06T12:00:51.346Z,32.70
2018-08-06T12:03:19.722Z,32.80
2018-08-06T12:05:50.077Z,33.00
2018-08-06T12:08:18.341Z,33.20
2018-08-06T12:10:46.747Z,33.30
2018-08-06T12:13:21.561Z,33.40
2018-08-06T12:15:49.941Z,33.40
2018-08-06T12:18:18.167Z,33.50
2018-08-06T12:20:46.416Z,33.60
2018-08-06T12:23:14.626Z,33.60
2018-08-06T12:25:59.487Z,33.60
2018-08-06T12:28:27.708Z,33.70
2018-08-06T12:30:55.988Z,33.80
2018-08-06T12:33:36.606Z,33.90
2018-08-06T12:36:05.285Z,33.90
2018-08-06T12:41:24.203Z,34.10
2018-08-06T12:43:52.466Z,34.10
2018-08-06T12:46:21.297Z,34.10
2018-08-06T12:48:49.524Z,34.20
2018-08-06T12:51:17.846Z,34.30
2018-08-06T12:54:03.622Z,34.40
2018-08-06T12:56:31.884Z,34.50
2018-08-06T12:59:00.118Z,34.60
2018-08-06T13:01:30.538Z,34.60
2018-08-06T13:03:58.753Z,34.60
2018-08-06T13:06:27.054Z,34.60
2018-08-06T13:08:55.318Z,34.70
2018-08-06T13:11:23.854Z,34.70
2018-08-06T13:13:52.100Z,34.80
2018-08-06T13:16:20.311Z,34.90
2018-08-06T13:18:48.554Z,35.10
2018-08-06T13:21:32.575Z,35.20
2018-08-06T13:24:00.983Z,35.30
2018-08-06T13:26:29.184Z,35.30
2018-08-06T13:28:57.370Z,35.30
2018-08-06T13:31:26.918Z,35.20
2018-08-06T13:37:03.773Z,35.10
2018-08-06T13:39:31.936Z,35.10
2018-08-06T13:42:00.146Z,35.20
2018-08-06T13:46:56.449Z,35.20
2018-08-06T13:49:25.474Z,35.30
2018-08-06T13:51:53.721Z,35.40
2018-08-06T14:00:18.204Z,35.60
2018-08-06T14:02:55.305Z,35.70
2018-08-06T14:05:23.556Z,35.70
2018-08-06T14:07:51.927Z,35.80
2018-08-06T14:10:20.161Z,35.80
2018-08-06T14:12:48.438Z,35.90
2018-08-06T14:15:16.619Z,35.90
2018-08-06T14:17:44.934Z,36.10
2018-08-06T14:20:14.901Z,36.10
2018-08-06T14:22:43.589Z,36.10
2018-08-06T14:25:12.108Z,36.20
2018-08-06T14:27:40.416Z,36.30
2018-08-06T14:33:03.275Z,36.40
2018-08-06T14:35:31.528Z,36.60
2018-08-06T14:37:59.805Z,36.60
2018-08-06T14:40:28.142Z,36.70
2018-08-06T14:42:56.352Z,36.70
2018-08-06T14:45:24.674Z,36.60
2018-08-06T14:47:52.895Z,36.70
2018-08-06T14:50:21.200Z,36.80
2018-08-06T14:55:17.603Z,37.00
2018-08-06T14:57:45.917Z,37.10
2018-08-06T15:00:17.124Z,37.20
2018-08-06T15:02:45.576Z,37.30
2018-08-06T15:05:13.800Z,37.40
2018-08-06T15:07:41.994Z,37.50
2018-08-06T15:10:12.195Z,37.70
2018-08-06T15:12:40.638Z,37.70
2018-08-06T15:15:11.308Z,37.80
2018-08-06T15:34:43.933Z,38.10
2018-08-06T15:37:12.231Z,38.00
2018-08-06T15:39:40.541Z,38.00
2018-08-06T15:42:09.040Z,38.00
2018-08-06T15:44:38.493Z,38.10
2018-08-06T15:47:07.633Z,38.20
2018-08-06T15:49:35.925Z,38.40
2018-08-06T15:52:04.317Z,38.50
2018-08-06T16:03:16.277Z,38.70
2018-08-06T16:05:44.744Z,38.60
2018-08-06T16:08:13.360Z,38.60
2018-08-06T16:10:41.717Z,38.60
2018-08-06T16:13:10.067Z,38.40
2018-08-06T16:15:38.458Z,38.10
2018-08-06T16:18:06.802Z,37.80
2018-08-06T16:20:35.110Z,37.60
2018-08-06T16:23:03.487Z,37.40
2018-08-06T16:25:32.096Z,37.10
2018-08-06T16:28:02.915Z,36.80
2018-08-06T16:30:31.379Z,36.60
2018-08-06T16:32:59.769Z,36.40
2018-08-06T16:35:28.158Z,36.10
2018-08-06T16:37:57.157Z,35.80
2018-08-06T16:40:25.461Z,35.60
2018-08-06T16:42:53.967Z,35.50
2018-08-06T16:45:22.704Z,35.30
2018-08-06T16:47:55.081Z,35.20
2018-08-06T16:50:23.466Z,35.00
2018-08-06T16:52:51.965Z,34.90
2018-08-06T16:55:20.305Z,34.70
2018-08-06T16:57:48.629Z,34.60
2018-08-06T17:00:38.921Z,34.40
2018-08-06T17:03:07.247Z,34.20
2018-08-06T17:05:35.842Z,34.10
2018-08-06T17:08:04.244Z,34.00
2018-08-06T17:16:27.260Z,33.50
2018-08-06T17:24:38.278Z,33.10
2018-08-06T17:27:06.818Z,33.00
2018-08-06T17:29:46.697Z,32.90
2018-08-06T17:32:15.141Z,32.80
2018-08-06T17:34:43.411Z,32.70
2018-08-06T17:37:11.745Z,32.60
2018-08-06T17:39:40.034Z,32.50
2018-08-06T17:42:08.327Z,32.40
2018-08-06T17:47:39.525Z,32.20
2018-08-06T17:50:10.523Z,32.10
2018-08-06T17:52:38.801Z,32.00
2018-08-06T17:55:07.189Z,31.90
2018-08-06T17:57:35.462Z,31.80
2018-08-06T18:00:04.714Z,31.70
2018-08-06T18:02:33.081Z,31.50
2018-08-06T18:05:01.273Z,31.40
2018-08-06T18:07:29.640Z,31.30
2018-08-06T18:09:57.944Z,31.30
2018-08-06T18:12:26.181Z,31.20
2018-08-06T18:14:58.038Z,31.20
2018-08-06T18:17:26.254Z,31.10
2018-08-06T18:19:54.449Z,31.00
2018-08-06T18:22:23.881Z,30.90
2018-08-06T18:24:52.157Z,30.80
2018-08-06T18:27:20.469Z,30.70
2018-08-06T18:29:48.717Z,30.70
2018-08-06T18:32:17.107Z,30.60
2018-08-06T18:34:45.579Z,30.50
2018-08-06T18:37:13.885Z,30.50
2018-08-06T18:39:42.247Z,30.40
2018-08-06T18:42:10.553Z,30.40
2018-08-06T18:44:38.881Z,30.20
2018-08-06T18:47:07.406Z,30.10
2018-08-06T18:49:35.986Z,30.00
2018-08-06T18:52:04.382Z,30.00
2018-08-06T18:54:32.663Z,29.90
2018-08-06T18:57:00.991Z,29.80
2018-08-06T18:59:29.358Z,29.70
2018-08-06T19:01:57.711Z,29.60
2018-08-06T19:04:26.083Z,29.50
2018-08-06T19:06:54.588Z,29.40
2018-08-06T19:09:22.976Z,29.30
2018-08-06T19:11:51.425Z,29.20
2018-08-06T19:14:21.692Z,29.10
2018-08-06T19:16:51.246Z,29.00
2018-08-06T19:19:26.977Z,28.90
2018-08-06T19:27:44.459Z,28.60
2018-08-06T19:30:13.274Z,28.50
2018-08-06T19:32:41.728Z,28.40
2018-08-06T19:35:10.217Z,28.20
2018-08-06T19:40:13.444Z,28.10
2018-08-06T19:42:47.109Z,27.90
2018-08-06T19:45:15.676Z,27.90
2018-08-06T19:47:44.723Z,27.80
2018-08-06T19:50:18.521Z,27.70
2018-08-06T19:52:46.983Z,27.60
2018-08-06T19:55:20.908Z,27.60
2018-08-06T19:57:49.529Z,27.50
2018-08-06T20:00:18.019Z,27.40
2018-08-06T20:02:46.542Z,27.30
2018-08-06T20:07:43.395Z,27.10
2018-08-06T20:10:13.313Z,27.00
2018-08-06T20:12:41.739Z,26.90
2018-08-06T20:15:14.257Z,26.80
2018-08-06T20:17:42.759Z,26.70
2018-08-06T20:20:11.898Z,26.60
2018-08-06T20:22:41.136Z,26.50
2018-08-06T20:25:16.485Z,26.40
2018-08-06T20:27:46.003Z,26.40
2018-08-06T20:30:16.076Z,26.30
2018-08-06T20:32:44.661Z,26.30
2018-08-06T20:35:15.591Z,26.20
2018-08-06T20:37:44.261Z,26.10
2018-08-06T20:40:12.723Z,26.00
2018-08-06T20:42:42.483Z,25.90
2018-08-06T20:45:16.889Z,25.90
2018-08-06T20:47:46.693Z,25.80
2018-08-06T20:50:16.684Z,25.70
2018-08-06T20:52:46.060Z,25.60
2018-08-06T20:55:14.535Z,25.60
2018-08-06T20:57:43.202Z,25.50
2018-08-06T21:00:13.861Z,25.50
2018-08-06T21:02:42.366Z,25.40
2018-08-06T21:05:10.570Z,25.40
2018-08-06T21:07:39.414Z,25.30
2018-08-06T21:13:03.011Z,25.20
2018-08-06T21:15:32.542Z,25.20
2018-08-06T21:18:00.917Z,25.10
2018-08-06T21:20:50.990Z,25.10
2018-08-06T21:23:19.612Z,25.00
2018-08-06T21:25:47.973Z,24.90
2018-08-06T21:33:36.918Z,24.70
2018-08-06T21:36:05.370Z,24.70
2018-08-06T21:38:33.697Z,24.60
2018-08-06T21:43:52.761Z,24.50
2018-08-06T21:46:21.246Z,24.40
2018-08-06T21:48:49.571Z,24.30
2018-08-06T21:51:18.039Z,24.30
2018-08-06T21:53:46.425Z,24.20
2018-08-06T21:56:14.726Z,24.20
2018-08-06T21:58:43.166Z,24.10
2018-08-06T22:01:11.507Z,24.00
2018-08-06T22:03:39.881Z,24.00
2018-08-06T22:06:08.240Z,23.90
2018-08-06T22:08:36.532Z,23.80
2018-08-06T22:11:05.147Z,23.80
2018-08-06T22:13:34.553Z,23.80
2018-08-06T22:16:03.179Z,23.70
2018-08-06T22:18:32.284Z,23.70
2018-08-06T22:21:00.942Z,23.60
2018-08-06T22:32:20.989Z,23.40
2018-08-06T22:34:49.315Z,23.40
2018-08-06T22:37:17.697Z,23.40
2018-08-06T22:39:52.083Z,23.40
2018-08-06T22:44:48.467Z,23.30
2018-08-06T22:47:16.957Z,23.20
2018-08-06T22:49:45.346Z,23.20
2018-08-06T22:52:13.689Z,23.10
2018-08-06T22:54:42.118Z,23.10
2018-08-06T22:57:10.666Z,23.10
2018-08-06T22:59:38.969Z,23.00
2018-08-06T23:02:07.315Z,23.00
2018-08-06T23:04:35.657Z,23.00
2018-08-06T23:07:04.070Z,23.00
2018-08-06T23:09:32.566Z,22.90
2018-08-06T23:12:00.839Z,22.90
2018-08-06T23:14:29.148Z,22.80
2018-08-06T23:16:57.491Z,22.80
2018-08-06T23:19:25.883Z,22.80
2018-08-06T23:27:35.915Z,22.70
2018-08-06T23:30:06.132Z,22.60
2018-08-06T23:32:34.488Z,22.60
2018-08-06T23:35:02.826Z,22.50
2018-08-06T23:37:31.189Z,22.50
2018-08-06T23:40:00.021Z,22.50
2018-08-06T23:42:45.691Z,22.50
2018-08-06T23:45:14.956Z,22.40
2018-08-06T23:47:43.250Z,22.40
2018-08-06T23:50:13.787Z,22.40
2018-08-06T23:52:43.246Z,22.30
2018-08-06T23:55:12.825Z,22.30
2018-08-06T23:57:41.406Z,22.30
